Time;durP1;ratioP1;P1;durP2;ratioP2;P2;SDS_P1;SDS_P2;PMS_P1;PMS_P2;Temp;Humidity;BMP_temperature;BMP_pressure;BME280_temperature;BME280_humidity;BME280_pressure;Samples;Min_cycle;Max_cycle;Signal;HPM_P1;HPM_P2
2021/04/16 00:02:20;;;;;;;11.90;7.00;;;14.30;53.30;;;;;;4972364;28;20537;-57
2021/04/16 00:04:47;;;;;;;13.13;6.13;;;14.30;53.30;;;;;;4971746;28;20509;-57
2021/04/16 00:07:14;;;;;;;8.23;5.30;;;14.30;53.30;;;;;;4972057;28;20536;-54
2021/04/16 00:09:41;;;;;;;12.07;6.23;;;14.30;53.40;;;;;;4971741;28;20502;-55
2021/04/16 00:12:09;;;;;;;12.10;6.13;;;14.30;53.30;;;;;;4972043;28;20477;-55
2021/04/16 00:14:36;;;;;;;11.30;6.07;;;14.30;53.40;;;;;;4971683;28;20462;-57
2021/04/16 00:17:02;;;;;;;8.63;5.40;;;14.20;53.40;;;;;;4971858;28;20545;-56
2021/04/16 00:19:31;;;;;;;9.30;5.47;;;14.20;53.40;;;;;;4971612;28;20438;-57
2021/04/16 00:21:57;;;;;;;10.00;6.00;;;14.20;53.50;;;;;;4971880;28;20592;-56
2021/04/16 00:24:24;;;;;;;10.30;5.77;;;14.20;53.50;;;;;;4971563;28;20473;-55
2021/04/16 00:26:51;;;;;;;13.77;5.67;;;14.10;53.60;;;;;;4971650;28;20533;-57
2021/04/16 00:29:18;;;;;;;10.60;5.50;;;14.10;53.60;;;;;;4971687;28;20474;-57
2021/04/16 00:31:50;;;;;;;8.97;5.60;;;14.10;53.60;;;;;;4974725;28;20573;-57
2021/04/16 00:34:19;;;;;;;7.97;5.43;;;14.10;53.70;;;;;;4975141;28;20496;-57
2021/04/16 00:36:46;;;;;;;9.03;5.30;;;14.00;53.90;;;;;;4974803;28;20493;-56
2021/04/16 00:39:14;;;;;;;7.30;4.60;;;14.00;53.90;;;;;;4975196;28;20456;-56
2021/04/16 00:41:41;;;;;;;7.67;4.70;;;14.00;53.90;;;;;;4975206;28;20469;-56
2021/04/16 00:44:07;;;;;;;7.37;4.77;;;14.00;53.90;;;;;;4975022;28;20434;-57
2021/04/16 00:46:38;;;;;;;8.37;4.63;;;14.00;53.90;;;;;;4974735;28;20547;-55
2021/04/16 00:49:06;;;;;;;6.27;4.27;;;14.00;53.90;;;;;;4974461;28;20508;-55
2021/04/16 00:51:34;;;;;;;8.00;4.90;;;14.00;53.80;;;;;;4974982;28;20549;-55
2021/04/16 00:54:02;;;;;;;9.60;4.80;;;13.90;53.90;;;;;;4974761;28;20529;-53
2021/04/16 00:56:29;;;;;;;6.73;4.60;;;13.90;54.00;;;;;;4974700;28;20442;-55
2021/04/16 00:58:55;;;;;;;8.93;4.93;;;13.90;54.00;;;;;;4974485;28;20442;-57
2021/04/16 01:01:22;;;;;;;9.40;5.00;;;13.90;54.00;;;;;;4974345;28;20550;-55
2021/04/16 01:03:49;;;;;;;6.07;4.27;;;13.90;54.00;;;;;;4974304;28;20435;-57
2021/04/16 01:06:16;;;;;;;7.60;4.47;;;13.90;53.90;;;;;;4974262;28;20541;-56
2021/04/16 01:08:43;;;;;;;7.43;4.67;;;13.90;54.00;;;;;;4974552;28;20498;-56
2021/04/16 01:11:11;;;;;;;8.20;4.70;;;13.90;54.00;;;;;;4974327;28;20533;-57
2021/04/16 01:13:38;;;;;;;9.17;4.90;;;13.80;54.10;;;;;;4974430;28;20481;-57
2021/04/16 01:16:05;;;;;;;10.17;5.00;;;13.80;54.20;;;;;;4974001;28;20470;-53
2021/04/16 01:18:34;;;;;;;7.43;4.63;;;13.80;54.20;;;;;;4973781;28;20443;-56
2021/04/16 01:21:05;;;;;;;5.67;3.70;;;13.70;54.30;;;;;;4974043;28;20449;-56
2021/04/16 01:23:36;;;;;;;6.40;4.27;;;13.70;54.40;;;;;;4974255;28;20514;-55
2021/04/16 01:26:04;;;;;;;15.30;4.70;;;13.70;54.40;;;;;;4974254;28;20438;-57
2021/04/16 01:28:31;;;;;;;7.33;4.17;;;13.70;54.30;;;;;;4974037;28;20508;-57
2021/04/16 01:30:59;;;;;;;9.23;4.50;;;13.70;54.30;;;;;;4973815;28;20469;-56
2021/04/16 01:33:26;;;;;;;5.97;4.10;;;13.70;54.50;;;;;;4974064;28;20453;-56
2021/04/16 01:35:55;;;;;;;4.87;3.80;;;13.70;54.50;;;;;;4974441;28;20450;-57
2021/04/16 01:38:22;;;;;;;8.73;4.20;;;13.70;54.50;;;;;;4973857;28;20470;-54
2021/04/16 01:40:49;;;;;;;6.60;3.23;;;13.60;54.60;;;;;;4974081;28;20465;-55
2021/04/16 01:43:22;;;;;;;6.07;3.90;;;13.70;54.60;;;;;;4973640;28;20462;-57
2021/04/16 01:45:48;;;;;;;6.00;3.90;;;13.60;54.40;;;;;;4974314;28;20498;-57
2021/04/16 01:48:15;;;;;;;6.13;4.20;;;13.60;54.50;;;;;;4974092;28;20482;-56
2021/04/16 01:50:43;;;;;;;5.83;3.80;;;13.60;54.60;;;;;;4973937;28;20465;-55
2021/04/16 01:53:09;;;;;;;5.57;3.87;;;13.60;54.60;;;;;;4973838;28;20447;-55
2021/04/16 01:55:36;;;;;;;4.83;3.47;;;13.50;54.70;;;;;;4973910;28;20463;-57
2021/04/16 01:58:03;;;;;;;5.33;3.53;;;13.50;54.80;;;;;;4973783;28;20485;-54
2021/04/16 02:00:33;;;;;;;4.63;3.73;;;13.50;54.70;;;;;;4973819;28;20480;-57
2021/04/16 02:03:00;;;;;;;6.27;4.00;;;13.50;54.70;;;;;;4974001;28;20503;-57
2021/04/16 02:05:27;;;;;;;4.20;3.43;;;13.50;54.70;;;;;;4973527;28;20453;-55
2021/04/16 02:07:53;;;;;;;4.10;3.30;;;13.50;54.70;;;;;;4973678;28;20477;-56
2021/04/16 02:10:21;;;;;;;7.10;3.70;;;13.50;54.70;;;;;;4973867;28;20439;-55
2021/04/16 02:12:48;;;;;;;7.10;3.93;;;13.50;54.80;;;;;;4973565;28;20442;-56
2021/04/16 02:15:15;;;;;;;4.60;3.33;;;13.50;54.80;;;;;;4973652;28;20486;-57
2021/04/16 02:17:43;;;;;;;4.10;3.13;;;13.50;54.80;;;;;;4973390;28;20450;-57
2021/04/16 02:20:12;;;;;;;5.90;3.50;;;13.40;55.00;;;;;;4973409;28;20442;-56
2021/04/16 02:22:38;;;;;;;4.90;3.20;;;13.40;55.00;;;;;;4973523;28;20474;-55
2021/04/16 02:25:07;;;;;;;4.17;3.57;;;13.40;55.10;;;;;;4973375;28;20529;-56
2021/04/16 02:27:34;;;;;;;5.60;3.43;;;13.30;55.00;;;;;;4973304;28;20753;-56
2021/04/16 02:30:00;;;;;;;5.53;3.40;;;13.40;55.00;;;;;;4973056;28;20489;-55
2021/04/16 02:32:27;;;;;;;5.73;3.47;;;13.40;55.10;;;;;;4973312;28;20469;-57
2021/04/16 02:34:55;;;;;;;6.87;3.97;;;13.30;55.00;;;;;;4973341;28;20450;-56
2021/04/16 02:37:23;;;;;;;4.07;3.30;;;13.30;55.00;;;;;;4973394;28;20470;-56
2021/04/16 02:39:50;;;;;;;5.30;2.97;;;13.30;55.10;;;;;;4973313;28;20539;-55
2021/04/16 02:42:16;;;;;;;4.10;3.10;;;13.30;55.20;;;;;;4973808;28;20475;-57
2021/04/16 02:44:43;;;;;;;4.27;3.20;;;13.30;55.00;;;;;;4972824;28;20541;-57
2021/04/16 02:47:10;;;;;;;4.63;2.83;;;13.20;55.10;;;;;;4972711;28;20540;-57
2021/04/16 02:49:37;;;;;;;5.83;3.30;;;13.20;55.40;;;;;;4972989;28;20482;-55
2021/04/16 02:52:06;;;;;;;4.27;2.70;;;13.20;55.40;;;;;;4973085;28;20443;-55
2021/04/16 02:54:33;;;;;;;5.70;3.40;;;13.20;55.30;;;;;;4972659;28;20443;-53
2021/04/16 02:56:59;;;;;;;3.70;3.33;;;13.10;55.30;;;;;;4973146;28;20489;-55
2021/04/16 02:59:27;;;;;;;4.23;2.90;;;13.10;55.40;;;;;;4972773;28;20442;-56
2021/04/16 03:01:54;;;;;;;3.43;2.83;;;13.10;55.50;;;;;;4972893;28;20490;-54
2021/04/16 03:04:21;;;;;;;3.60;3.07;;;13.00;55.50;;;;;;4973026;28;20500;-56
2021/04/16 03:06:48;;;;;;;4.33;2.70;;;13.00;55.50;;;;;;4972863;28;20450;-57
2021/04/16 03:09:16;;;;;;;2.83;2.63;;;13.00;55.60;;;;;;4972761;28;20521;-54
2021/04/16 03:11:42;;;;;;;4.13;2.80;;;13.00;55.50;;;;;;4972755;28;20476;-56
2021/04/16 03:14:09;;;;;;;3.10;2.50;;;13.00;55.50;;;;;;4972753;28;20549;-54
2021/04/16 03:16:36;;;;;;;4.30;2.83;;;13.00;55.60;;;;;;4972549;28;20504;-54
2021/04/16 03:19:04;;;;;;;3.70;2.90;;;12.90;55.50;;;;;;4972754;28;20456;-54
2021/04/16 03:21:30;;;;;;;3.60;2.80;;;13.00;55.60;;;;;;4972889;28;20450;-56
2021/04/16 03:23:57;;;;;;;5.80;2.83;;;12.90;55.60;;;;;;4972553;28;20481;-56
2021/04/16 03:26:25;;;;;;;2.93;2.60;;;12.90;55.60;;;;;;4972444;28;20457;-56
2021/04/16 03:28:53;;;;;;;3.10;2.40;;;12.90;55.70;;;;;;4972433;28;20520;-55
2021/04/16 03:31:20;;;;;;;3.63;2.53;;;13.00;56.20;;;;;;4972183;28;20466;-54
2021/04/16 03:33:47;;;;;;;4.07;2.87;;;13.10;55.70;;;;;;4972208;28;20434;-55
2021/04/16 03:36:14;;;;;;;4.23;2.90;;;13.00;55.80;;;;;;4972551;28;20453;-54
2021/04/16 03:38:41;;;;;;;2.97;2.73;;;13.00;56.00;;;;;;4969575;28;20438;-51
2021/04/16 03:41:08;;;;;;;2.80;2.43;;;13.00;56.10;;;;;;4971562;28;20478;-54
2021/04/16 03:43:36;;;;;;;4.00;2.87;;;12.90;56.00;;;;;;4972299;28;20525;-51
2021/04/16 03:46:03;;;;;;;3.07;2.77;;;12.90;56.10;;;;;;4953892;28;20439;-56
2021/04/16 03:48:30;;;;;;;2.13;2.00;;;12.90;56.10;;;;;;4952947;28;20507;-51
2021/04/16 03:50:58;;;;;;;2.43;2.20;;;12.90;56.10;;;;;;4953103;28;20462;-52
2021/04/16 03:53:25;;;;;;;8.33;2.80;;;12.90;56.20;;;;;;4952904;28;20494;-53
2021/04/16 03:55:52;;;;;;;5.70;3.37;;;12.90;56.20;;;;;;4952661;28;20489;-52
2021/04/16 03:58:19;;;;;;;4.00;2.77;;;12.90;56.20;;;;;;4952991;28;20471;-55
2021/04/16 04:00:47;;;;;;;4.20;2.63;;;12.80;56.30;;;;;;4952915;28;20502;-65
2021/04/16 04:03:14;;;;;;;3.17;2.63;;;12.80;56.20;;;;;;4952595;28;20538;-67
2021/04/16 04:05:41;;;;;;;6.90;2.60;;;12.90;56.30;;;;;;4953933;28;20473;-51
2021/04/16 04:08:08;;;;;;;5.33;2.23;;;13.00;57.10;;;;;;4956176;28;20504;-64
2021/04/16 04:10:36;;;;;;;8.10;2.63;;;13.40;57.30;;;;;;4956151;28;20518;-65
2021/04/16 04:13:04;;;;;;;4.40;2.23;;;13.40;57.30;;;;;;4969697;28;20496;-65
2021/04/16 04:15:31;;;;;;;4.83;2.47;;;13.20;57.60;;;;;;4968683;28;20554;-67
2021/04/16 04:17:59;;;;;;;3.30;2.40;;;13.10;57.80;;;;;;4956024;28;20479;-52
2021/04/16 04:20:28;;;;;;;4.73;2.23;;;13.00;58.00;;;;;;4955755;28;20446;-51
2021/04/16 04:22:55;;;;;;;5.63;2.40;;;13.20;58.40;;;;;;4956308;28;20447;-52
2021/04/16 04:25:23;;;;;;;7.73;2.43;;;13.20;58.40;;;;;;4955435;28;20431;-53
2021/04/16 04:27:50;;;;;;;7.83;2.50;;;13.20;58.30;;;;;;4987367;28;20473;-63
2021/04/16 04:30:18;;;;;;;16.00;2.80;;;13.20;58.40;;;;;;4971051;28;20554;-54
2021/04/16 04:32:45;;;;;;;7.67;2.30;;;13.50;60.80;;;;;;4966672;28;20489;-53
2021/04/16 04:35:13;;;;;;;8.97;2.50;;;14.00;60.20;;;;;;4955739;28;20443;-51
2021/04/16 04:37:40;;;;;;;11.90;2.50;;;14.10;59.40;;;;;;4955449;28;20447;-53
2021/04/16 04:40:08;;;;;;;6.30;2.13;;;13.80;60.20;;;;;;4955846;28;20443;-54
2021/04/16 04:42:35;;;;;;;13.30;2.70;;;13.50;60.50;;;;;;4955599;28;20506;-55
2021/04/16 04:45:03;;;;;;;6.73;2.47;;;13.30;61.00;;;;;;4955053;28;20462;-53
2021/04/16 04:47:30;;;;;;;8.60;2.60;;;13.30;61.80;;;;;;4955746;28;20450;-53
2021/04/16 04:49:57;;;;;;;16.23;2.73;;;13.20;61.10;;;;;;4955488;28;20483;-52
2021/04/16 04:52:26;;;;;;;5.03;2.23;;;13.10;61.00;;;;;;4955769;28;20589;-55
2021/04/16 04:54:54;;;;;;;5.20;2.10;;;13.10;61.10;;;;;;4955434;28;20505;-51
2021/04/16 04:57:22;;;;;;;6.80;1.90;;;13.10;61.00;;;;;;4955586;28;20439;-54
2021/04/16 04:59:49;;;;;;;6.00;2.47;;;13.00;60.80;;;;;;4955187;28;20443;-54
2021/04/16 05:02:16;;;;;;;2.87;2.23;;;13.00;60.70;;;;;;4955361;28;20439;-55
2021/04/16 05:04:43;;;;;;;13.63;2.63;;;13.00;60.80;;;;;;4955098;28;20451;-52
2021/04/16 05:07:10;;;;;;;4.33;2.00;;;13.00;60.70;;;;;;4955440;28;20474;-54
2021/04/16 05:09:38;;;;;;;6.77;1.90;;;13.00;60.60;;;;;;4955435;28;20483;-51
2021/04/16 05:12:06;;;;;;;6.33;2.23;;;13.00;60.40;;;;;;4955043;28;20526;-51
2021/04/16 05:14:32;;;;;;;6.43;2.30;;;13.00;60.40;;;;;;4958594;28;20503;-61
2021/04/16 05:17:03;;;;;;;7.63;2.57;;;13.00;60.40;;;;;;4962401;28;20451;-63
2021/04/16 05:19:30;;;;;;;8.13;2.33;;;12.90;60.20;;;;;;4962702;28;20447;-52
2021/04/16 05:21:57;;;;;;;6.53;2.30;;;13.00;60.20;;;;;;4971939;28;20459;-54
2021/04/16 05:24:24;;;;;;;6.20;2.70;;;12.90;60.10;;;;;;4969248;28;20504;-49
2021/04/16 05:26:52;;;;;;;2.70;2.30;;;12.90;60.00;;;;;;4964407;28;20438;-53
2021/04/16 05:29:19;;;;;;;5.80;2.00;;;13.00;60.00;;;;;;4963761;28;20510;-53
2021/04/16 05:31:45;;;;;;;2.70;1.87;;;12.90;59.90;;;;;;4965570;28;20496;-49
2021/04/16 05:34:12;;;;;;;12.57;2.40;;;12.90;59.70;;;;;;4965747;28;20436;-53
2021/04/16 05:36:39;;;;;;;2.57;2.37;;;13.20;59.90;;;;;;4966070;28;20432;-55
2021/04/16 05:39:06;;;;;;;3.33;2.10;;;13.30;59.60;;;;;;4962601;28;20470;-54
2021/04/16 05:41:33;;;;;;;3.10;2.20;;;13.20;59.70;;;;;;4965199;28;20431;-50
2021/04/16 05:44:01;;;;;;;2.63;1.90;;;13.10;59.70;;;;;;4962321;28;20538;-53
2021/04/16 05:46:27;;;;;;;3.33;2.53;;;13.10;59.90;;;;;;4964907;28;20434;-51
2021/04/16 05:48:55;;;;;;;2.80;1.80;;;13.00;59.80;;;;;;4963968;28;20506;-52
2021/04/16 05:51:21;;;;;;;7.50;1.97;;;13.00;59.80;;;;;;4962559;28;20482;-54
2021/04/16 05:53:48;;;;;;;3.50;1.97;;;13.00;59.70;;;;;;4964065;28;20473;-55
2021/04/16 05:56:15;;;;;;;8.40;2.33;;;13.10;59.70;;;;;;4966916;28;20481;-55
2021/04/16 05:58:42;;;;;;;4.50;1.90;;;13.00;59.60;;;;;;4954325;28;20439;-54
2021/04/16 06:01:10;;;;;;;4.30;1.90;;;13.10;59.60;;;;;;4954307;28;20526;-54
2021/04/16 06:03:37;;;;;;;6.70;2.60;;;13.10;59.60;;;;;;4954456;29;20435;-51
2021/04/16 06:06:04;;;;;;;4.00;2.10;;;13.10;59.50;;;;;;4954603;28;20516;-54
2021/04/16 06:08:31;;;;;;;6.30;2.13;;;13.10;59.40;;;;;;4954529;28;20455;-53
2021/04/16 06:10:59;;;;;;;16.37;2.00;;;13.20;59.40;;;;;;4954441;28;20566;-53
2021/04/16 06:13:26;;;;;;;3.20;1.90;;;13.20;59.90;;;;;;4954200;28;20452;-52
2021/04/16 06:15:53;;;;;;;6.90;2.07;;;13.20;59.30;;;;;;4954144;28;20439;-53
2021/04/16 06:18:22;;;;;;;4.77;1.87;;;13.20;59.20;;;;;;4954255;28;20465;-55
2021/04/16 06:20:49;;;;;;;3.17;2.03;;;13.20;59.20;;;;;;4954122;28;20479;-53
2021/04/16 06:23:16;;;;;;;2.80;1.73;;;13.30;59.10;;;;;;4954099;28;20447;-53
2021/04/16 06:25:43;;;;;;;3.90;1.90;;;13.30;59.10;;;;;;4953789;28;20477;-55
2021/04/16 06:28:10;;;;;;;4.17;1.97;;;13.30;59.00;;;;;;4953949;28;20443;-54
2021/04/16 06:30:38;;;;;;;4.10;1.90;;;13.40;59.10;;;;;;4954073;28;20514;-54
2021/04/16 06:33:06;;;;;;;4.60;2.00;;;13.40;59.00;;;;;;4954154;28;20447;-51
2021/04/16 06:35:35;;;;;;;3.83;1.83;;;13.50;59.00;;;;;;4953877;28;20439;-55
2021/04/16 06:38:02;;;;;;;2.73;2.10;;;13.50;58.90;;;;;;4953982;28;20454;-54
2021/04/16 06:40:29;;;;;;;2.80;1.60;;;13.50;58.80;;;;;;4953740;28;20447;-54
2021/04/16 06:42:56;;;;;;;4.23;1.80;;;13.60;58.80;;;;;;4953893;28;20443;-54
2021/04/16 06:45:24;;;;;;;2.00;1.60;;;13.60;58.70;;;;;;4953554;28;20475;-52
2021/04/16 06:47:54;;;;;;;1.93;1.70;;;13.70;58.70;;;;;;4953597;28;20444;-54
2021/04/16 06:50:23;;;;;;;4.50;1.73;;;13.80;58.60;;;;;;4953968;28;20486;-55
2021/04/16 06:52:52;;;;;;;1.70;1.60;;;13.80;58.40;;;;;;4953618;28;20475;-55
2021/04/16 06:55:21;;;;;;;2.67;1.97;;;13.90;58.40;;;;;;4953730;28;20545;-55
2021/04/16 06:57:49;;;;;;;9.40;1.60;;;13.90;58.20;;;;;;4953353;28;20515;-55
2021/04/16 07:00:20;;;;;;;6.23;2.10;;;14.00;58.00;;;;;;4953940;28;20500;-53
2021/04/16 07:02:51;;;;;;;6.30;1.60;;;14.10;57.90;;;;;;4953794;28;20493;-54
2021/04/16 07:05:23;;;;;;;3.30;1.83;;;14.20;57.70;;;;;;4953448;28;20469;-54
2021/04/16 07:07:51;;;;;;;6.73;2.03;;;14.20;57.60;;;;;;4953729;28;20477;-53
2021/04/16 07:10:19;;;;;;;9.13;1.50;;;14.30;57.60;;;;;;4953887;28;20541;-54
2021/04/16 07:12:46;;;;;;;2.30;1.63;;;14.40;57.50;;;;;;4953607;28;20534;-56
2021/04/16 07:15:15;;;;;;;2.43;1.90;;;14.50;57.30;;;;;;4952990;28;20478;-53
2021/04/16 07:17:42;;;;;;;1.77;1.60;;;14.60;57.20;;;;;;4953399;28;20474;-54
2021/04/16 07:20:11;;;;;;;2.10;1.50;;;14.70;57.00;;;;;;4953207;28;20435;-52
2021/04/16 07:22:40;;;;;;;1.83;1.50;;;14.80;56.80;;;;;;4953144;28;20440;-53
2021/04/16 07:25:16;;;;;;;5.13;1.60;;;14.90;56.70;;;;;;4953346;28;20455;-52
2021/04/16 07:27:44;;;;;;;5.80;1.70;;;14.90;57.10;;;;;;4953241;28;20538;-53
2021/04/16 07:30:29;;;;;;;2.10;1.60;;;15.10;56.30;;;;;;4953256;28;20541;-55
2021/04/16 07:32:59;;;;;;;3.70;1.73;;;15.20;56.20;;;;;;4953430;28;20470;-54
2021/04/16 07:35:28;;;;;;;2.60;1.50;;;15.30;56.10;;;;;;4953019;28;20450;-56
2021/04/16 07:38:03;;;;;;;1.60;1.50;;;15.40;55.90;;;;;;4953167;28;20507;-51
2021/04/16 07:40:36;;;;;;;2.63;1.73;;;15.60;55.50;;;;;;4954540;28;20459;-52
2021/04/16 07:43:03;;;;;;;1.70;1.60;;;15.70;55.50;;;;;;4956792;28;20478;-49
2021/04/16 07:45:41;;;;;;;1.50;1.40;;;15.80;55.30;;;;;;4956589;28;20497;-56
2021/04/16 07:48:32;;;;;;;4.00;1.60;;;15.90;55.20;;;;;;4951747;28;20532;-56
2021/04/16 07:51:00;;;;;;;2.87;1.70;;;16.10;54.90;;;;;;4956368;28;20513;-54
2021/04/16 07:53:34;;;;;;;3.13;1.70;;;16.20;54.80;;;;;;4956256;28;20489;-56
2021/04/16 07:56:20;;;;;;;4.10;1.80;;;16.30;54.60;;;;;;4956411;28;20471;-54
2021/04/16 07:58:48;;;;;;;8.20;1.60;;;16.50;54.50;;;;;;4956154;28;20475;-55
2021/04/16 08:01:21;;;;;;;2.10;1.50;;;16.60;54.40;;;;;;4956379;28;20465;-55
2021/04/16 08:03:49;;;;;;;1.63;1.53;;;16.80;54.20;;;;;;4956247;28;20451;-53
2021/04/16 08:06:28;;;;;;;2.10;1.87;;;16.90;53.80;;;;;;4955853;28;20509;-56
2021/04/16 08:08:55;;;;;;;1.70;1.60;;;17.10;53.70;;;;;;4956166;28;20481;-56
2021/04/16 08:11:25;;;;;;;3.03;1.33;;;17.30;53.50;;;;;;4956384;29;20471;-56
2021/04/16 08:13:57;;;;;;;1.80;1.40;;;17.40;53.40;;;;;;4956361;28;20431;-51
2021/04/16 08:16:25;;;;;;;2.40;1.67;;;17.50;53.20;;;;;;4956105;28;20451;-53
2021/04/16 08:19:05;;;;;;;1.17;1.17;;;17.70;53.00;;;;;;4956100;28;20530;-55
2021/04/16 08:21:34;;;;;;;3.87;1.33;;;17.90;52.80;;;;;;4956129;28;20482;-55
2021/04/16 08:24:02;;;;;;;2.07;1.67;;;18.00;52.50;;;;;;4956010;28;20454;-52
2021/04/16 08:26:31;;;;;;;1.93;1.57;;;18.10;52.40;;;;;;4955845;28;20558;-54
2021/04/16 08:28:59;;;;;;;1.73;1.47;;;18.30;52.40;;;;;;4955646;28;20431;-53
2021/04/16 08:31:31;;;;;;;3.33;1.40;;;18.40;52.20;;;;;;4955937;28;20485;-53
2021/04/16 08:34:00;;;;;;;2.90;1.37;;;18.50;52.10;;;;;;4956141;28;20529;-54
2021/04/16 08:36:31;;;;;;;1.47;1.37;;;18.70;51.90;;;;;;4955525;28;20447;-53
2021/04/16 08:38:59;;;;;;;1.40;1.30;;;18.80;51.90;;;;;;4955528;28;20500;-56
2021/04/16 08:41:26;;;;;;;1.53;1.33;;;18.90;51.50;;;;;;4955470;28;20446;-53
2021/04/16 08:43:55;;;;;;;2.20;1.50;;;19.10;51.40;;;;;;4955543;28;20482;-52
2021/04/16 08:46:29;;;;;;;1.47;1.30;;;19.30;51.20;;;;;;4955717;28;20470;-55
2021/04/16 08:48:59;;;;;;;2.30;1.20;;;19.40;51.00;;;;;;4955785;28;20485;-54
2021/04/16 08:51:27;;;;;;;3.67;1.53;;;19.50;50.90;;;;;;4955250;28;20491;-54
2021/04/16 08:54:02;;;;;;;4.07;1.20;;;19.60;50.90;;;;;;4955354;28;20443;-53
2021/04/16 08:56:32;;;;;;;1.40;1.30;;;19.70;50.60;;;;;;4955553;28;20446;-50
2021/04/16 08:59:12;;;;;;;1.73;1.47;;;19.90;50.40;;;;;;4955160;28;20439;-56
2021/04/16 09:01:45;;;;;;;2.20;1.13;;;20.00;50.30;;;;;;4955497;28;20443;-53
2021/04/16 09:04:15;;;;;;;1.70;1.60;;;20.10;50.20;;;;;;4955234;28;20450;-55
2021/04/16 09:06:47;;;;;;;1.10;1.00;;;20.30;50.00;;;;;;4955451;28;20428;-55
2021/04/16 09:09:31;;;;;;;1.27;1.17;;;20.40;50.10;;;;;;4955103;28;20471;-54
2021/04/16 09:11:58;;;;;;;3.43;1.10;;;20.60;49.80;;;;;;4955298;28;20605;-54
2021/04/16 09:14:52;;;;;;;1.70;1.53;;;20.70;49.60;;;;;;4954943;28;20528;-55
2021/04/16 09:17:18;;;;;;;3.37;1.47;;;20.90;49.50;;;;;;4955243;28;20481;-54
2021/04/16 09:19:59;;;;;;;1.93;1.30;;;20.90;49.50;;;;;;4955263;28;20435;-56
2021/04/16 09:22:42;;;;;;;2.77;1.17;;;21.20;49.20;;;;;;4955249;28;20495;-55
2021/04/16 09:25:35;;;;;;;1.30;1.20;;;21.30;49.00;;;;;;4954896;28;20517;-56
2021/04/16 09:28:32;;;;;;;1.07;0.97;;;21.50;48.80;;;;;;4968164;28;20455;-53
2021/04/16 09:31:02;;;;;;;1.43;1.30;;;21.60;48.80;;;;;;4954696;28;20476;-52
2021/04/16 09:33:41;;;;;;;1.70;1.60;;;21.80;48.50;;;;;;4954715;28;20471;-52
2021/04/16 09:36:41;;;;;;;1.40;1.30;;;22.00;48.40;;;;;;4954867;28;20504;-54
2021/04/16 09:39:12;;;;;;;4.90;1.20;;;22.10;48.00;;;;;;4954636;28;20466;-50
2021/04/16 09:41:40;;;;;;;3.27;1.17;;;22.30;47.80;;;;;;4954877;28;20443;-50
2021/04/16 09:44:36;;;;;;;1.20;1.20;;;22.50;47.60;;;;;;4954620;28;20447;-49
2021/04/16 09:47:05;;;;;;;1.37;1.27;;;22.70;47.30;;;;;;4988039;28;20517;-53
2021/04/16 09:49:37;;;;;;;1.07;1.07;;;22.80;47.20;;;;;;4954514;28;20485;-52
2021/04/16 09:52:37;;;;;;;1.53;1.40;;;23.00;47.10;;;;;;4954533;28;20439;-52
2021/04/16 09:55:37;;;;;;;1.30;1.20;;;23.20;46.90;;;;;;4954159;28;20483;-52
2021/04/16 09:58:03;;;;;;;2.20;1.33;;;23.40;46.70;;;;;;4954761;28;20520;-54
2021/04/16 10:01:06;;;;;;;1.87;1.20;;;23.60;46.40;;;;;;4954649;28;20474;-53
2021/04/16 10:03:43;;;;;;;1.43;1.33;;;23.80;46.20;;;;;;4953840;28;20414;-51
2021/04/16 10:06:15;;;;;;;1.10;1.00;;;24.00;46.00;;;;;;4954163;28;20406;-51
2021/04/16 10:08:43;;;;;;;1.37;1.27;;;24.10;45.80;;;;;;4954397;28;20504;-51
2021/04/16 10:11:10;;;;;;;1.20;1.10;;;24.20;45.70;;;;;;4954465;28;20458;-54
2021/04/16 10:13:39;;;;;;;1.33;1.23;;;24.30;45.50;;;;;;4954592;28;20468;-50
2021/04/16 10:16:17;;;;;;;1.10;1.10;;;24.50;45.40;;;;;;4953980;28;20472;-54
2021/04/16 10:18:44;;;;;;;1.90;1.13;;;24.60;45.10;;;;;;4954384;28;20442;-53
2021/04/16 10:21:24;;;;;;;1.33;1.20;;;24.70;45.00;;;;;;4954193;28;20440;-52
2021/04/16 10:24:19;;;;;;;1.07;1.07;;;25.00;44.70;;;;;;4954390;28;20406;-51
2021/04/16 12:38:57;;;;;;;0.50;0.50;;;37.80;25.50;;;;;;4974745;28;20477;-55
2021/04/16 12:41:25;;;;;;;0.50;0.50;;;41.30;22.50;;;;;;4975085;28;20235;-56
2021/04/16 12:43:52;;;;;;;1.48;0.40;;;42.60;21.40;;;;;;4974941;28;20287;-56
2021/04/16 12:46:19;;;;;;;0.47;0.47;;;43.80;20.50;;;;;;4974783;28;20269;-56
2021/04/16 12:48:48;;;;;;;0.50;0.50;;;43.90;20.00;;;;;;4974703;28;20204;-54
2021/04/16 12:51:15;;;;;;;0.50;0.50;;;41.00;21.70;;;;;;4974478;28;20226;-55
2021/04/16 12:53:41;;;;;;;0.50;0.50;;;40.90;21.70;;;;;;4974996;28;20253;-54
2021/04/16 12:56:10;;;;;;;0.50;0.50;;;40.80;21.90;;;;;;4974774;28;20203;-55
2021/04/16 12:58:39;;;;;;;0.65;0.47;;;39.90;23.10;;;;;;4974797;28;20238;-57
2021/04/16 13:01:08;;;;;;;0.50;0.50;;;43.10;21.00;;;;;;4974901;28;20196;-55
2021/04/16 13:03:36;;;;;;;0.60;0.60;;;40.10;22.10;;;;;;4974574;28;20200;-53
2021/04/16 13:06:05;;;;;;;0.87;0.87;;;37.10;24.70;;;;;;4965142;28;20468;-51
2021/04/16 13:08:32;;;;;;;0.80;0.80;;;33.90;27.80;;;;;;4967344;28;20518;-53
2021/04/16 13:10:59;;;;;;;0.60;0.60;;;34.90;28.20;;;;;;4965577;28;20474;-56
2021/04/16 13:13:26;;;;;;;0.60;0.60;;;39.30;24.30;;;;;;4964468;28;20492;-56
2021/04/16 13:15:55;;;;;;;0.60;0.60;;;41.70;22.10;;;;;;4965044;28;20212;-56
2021/04/16 13:18:24;;;;;;;1.20;0.60;;;43.10;21.00;;;;;;4965875;28;20355;-56
2021/04/16 13:20:51;;;;;;;0.60;0.60;;;43.90;20.40;;;;;;4965583;28;20232;-56
2021/04/16 13:23:20;;;;;;;0.60;0.60;;;43.80;20.30;;;;;;4967350;28;20223;-55
2021/04/16 13:25:47;;;;;;;0.80;0.80;;;42.00;20.80;;;;;;4966107;28;20526;-52
2021/04/16 13:28:14;;;;;;;1.33;0.60;;;39.00;23.40;;;;;;4960734;28;20439;-52
2021/04/16 13:30:41;;;;;;;1.20;0.93;;;37.10;25.40;;;;;;4954870;28;20518;-51
2021/04/16 13:33:10;;;;;;;1.37;0.90;;;35.50;26.90;;;;;;4954905;28;20522;-54
2021/04/16 13:35:38;;;;;;;1.53;0.80;;;34.60;28.00;;;;;;4955009;28;20474;-52
2021/04/16 13:38:05;;;;;;;2.20;0.90;;;34.00;28.70;;;;;;4953927;28;20455;-50
2021/04/16 13:40:33;;;;;;;1.53;0.90;;;33.30;29.40;;;;;;4957715;28;20488;-52
2021/04/16 13:43:00;;;;;;;1.23;1.00;;;32.80;30.10;;;;;;4974172;28;20477;-50
2021/04/16 13:45:27;;;;;;;1.57;0.80;;;32.10;31.00;;;;;;4973772;28;20484;-52
2021/04/16 13:47:54;;;;;;;1.33;1.00;;;31.60;31.80;;;;;;4974741;28;20469;-53
2021/04/16 13:50:21;;;;;;;3.90;1.00;;;31.30;32.50;;;;;;4973859;28;20477;-53
2021/04/16 13:52:49;;;;;;;0.90;0.90;;;30.90;33.00;;;;;;4974253;28;20481;-49
2021/04/16 13:55:17;;;;;;;1.43;0.90;;;30.70;33.60;;;;;;4973938;28;20526;-48
2021/04/16 13:57:45;;;;;;;1.40;1.20;;;30.40;34.00;;;;;;4970695;28;20526;-51
2021/04/16 14:00:14;;;;;;;2.30;0.90;;;30.30;34.30;;;;;;4970244;28;20442;-53
2021/04/16 14:02:46;;;;;;;1.47;1.27;;;30.20;34.80;;;;;;4967527;28;20446;-49
2021/04/16 14:05:16;;;;;;;1.10;0.90;;;29.90;34.60;;;;;;4957182;28;20455;-48
2021/04/16 14:07:43;;;;;;;2.00;1.00;;;29.90;34.80;;;;;;4962274;28;20488;-50
2021/04/16 14:10:10;;;;;;;1.63;1.00;;;29.90;35.10;;;;;;4964117;28;20534;-50
2021/04/16 14:12:37;;;;;;;0.90;0.80;;;29.80;35.10;;;;;;4963016;28;20497;-50
2021/04/16 14:15:08;;;;;;;3.23;0.90;;;29.80;35.00;;;;;;4962198;28;20463;-48
2021/04/16 14:17:38;;;;;;;1.20;0.87;;;29.70;35.10;;;;;;4964884;28;20434;-52
2021/04/16 14:20:12;;;;;;;1.73;0.80;;;29.60;35.20;;;;;;4961073;28;20486;-51
2021/04/16 14:22:40;;;;;;;2.43;1.00;;;29.10;35.80;;;;;;4962631;28;20466;-50
2021/04/16 14:25:08;;;;;;;1.50;0.90;;;28.90;36.40;;;;;;4963985;28;20541;-49
2021/04/16 14:27:35;;;;;;;1.77;1.10;;;28.70;36.60;;;;;;4962943;28;20553;-50
2021/04/16 14:30:05;;;;;;;1.73;0.90;;;28.80;36.50;;;;;;4963179;28;20477;-50
2021/04/16 14:32:32;;;;;;;0.87;0.80;;;28.70;36.20;;;;;;4963784;28;20454;-50
2021/04/16 14:34:59;;;;;;;0.90;0.90;;;28.70;36.50;;;;;;4962689;28;20542;-49
2021/04/16 14:37:26;;;;;;;2.00;1.23;;;28.60;36.50;;;;;;4961387;28;20526;-50
2021/04/16 14:39:53;;;;;;;1.20;0.80;;;28.60;36.50;;;;;;4962747;28;20470;-51
2021/04/16 14:42:20;;;;;;;0.87;0.87;;;28.60;36.50;;;;;;4963222;28;20467;-50
2021/04/16 14:44:46;;;;;;;1.20;1.10;;;28.70;36.30;;;;;;4961190;28;20454;-50
2021/04/16 14:47:14;;;;;;;1.50;1.27;;;29.00;35.80;;;;;;4962900;28;20467;-49
2021/04/16 14:49:41;;;;;;;1.03;0.90;;;29.70;34.80;;;;;;4962774;28;20475;-52
2021/04/16 14:52:09;;;;;;;2.30;0.90;;;31.70;32.40;;;;;;4960792;28;20542;-49
2021/04/16 14:54:37;;;;;;;4.70;0.83;;;33.70;29.50;;;;;;4962229;28;20496;-49
2021/04/16 14:57:07;;;;;;;0.90;0.90;;;35.10;27.90;;;;;;4958710;28;20506;-52
2021/04/16 14:59:39;;;;;;;0.87;0.87;;;35.80;27.00;;;;;;4962417;28;20527;-53
2021/04/16 15:02:06;;;;;;;1.43;0.90;;;35.40;26.90;;;;;;4960909;28;20467;-52
2021/04/16 15:04:34;;;;;;;0.80;0.80;;;35.30;27.20;;;;;;4957467;28;20548;-51
2021/04/16 15:07:01;;;;;;;0.93;0.80;;;35.10;26.80;;;;;;4962815;28;20539;-53
2021/04/16 15:09:31;;;;;;;1.50;0.80;;;34.60;27.50;;;;;;4986529;28;20463;-52